Albrightsville, Pennsylvania
Current Conditions -  °F | °C
As of 6:53 AM on Sunday 23 Nov 2014 (Local Time) from KMPO Reporting Station
Overcast Overcast  
Wind Chill: 34°   Ceiling: 8000
Heat Index: 40°   Visibility: 10mi
Dew Point: 18°   Wind: 8mph
Humidity: 41%   Direction: 270°W
Pressure: 30.12"   Gusts: NA
Location:  41°N, 75.53°W
Report Text: KMPO 231153Z AUTO 27007KT 10SM OVC080 04/M08 A3012 RMK AO2 SLP216 T00441078 10050 20039 53008
Loading
Personal Weather Stations






























Interactive Weather Map New forecast layout! Learn more

10-Day Weather Forecast

Advertisements
Track Severe Weather on mobile